Time;durP1;ratioP1;P1;durP2;ratioP2;P2;SDS_P1;SDS_P2;PMS_P1;PMS_P2;Temp;Humidity;BMP_temperature;BMP_pressure;BME280_temperature;BME280_humidity;BME280_pressure;Samples;Min_cycle;Max_cycle;Signal;HPM_P1;HPM_P2
2023/08/26 00:02:10;;;;;;;9.20;5.97;;;17.10;99.90;;;;;;5029787;28;20239;-86
2023/08/26 00:04:41;;;;;;;10.63;6.85;;;17.10;99.90;;;;;;5050180;28;20572;-85
2023/08/26 00:07:11;;;;;;;15.23;6.90;;;17.10;99.90;;;;;;5051296;28;20200;-86
2023/08/26 00:09:42;;;;;;;9.88;6.07;;;17.20;99.90;;;;;;5050615;28;20212;-87
2023/08/26 00:12:15;;;;;;;11.60;6.50;;;17.30;99.90;;;;;;5050620;28;20217;-86
2023/08/26 00:14:46;;;;;;;10.00;5.60;;;17.30;99.90;;;;;;5048819;28;20213;-85
2023/08/26 00:17:17;;;;;;;9.02;5.22;;;17.30;99.90;;;;;;5051110;28;20244;-86
2023/08/26 00:19:50;;;;;;;8.15;5.25;;;17.40;99.90;;;;;;5046492;28;20197;-87
2023/08/26 00:22:21;;;;;;;9.70;5.50;;;17.50;99.90;;;;;;5055382;28;20189;-88
2023/08/26 00:24:51;;;;;;;9.63;5.07;;;17.60;99.90;;;;;;5055461;28;20200;-88
2023/08/26 00:27:24;;;;;;;8.02;5.18;;;17.80;99.90;;;;;;5055093;28;20674;-88
2023/08/26 00:29:55;;;;;;;8.35;4.60;;;17.90;99.90;;;;;;5057647;28;20204;-87
2023/08/26 00:32:27;;;;;;;8.23;4.32;;;18.10;99.90;;;;;;5068478;28;20199;-86
2023/08/26 00:34:58;;;;;;;8.73;4.65;;;18.20;99.90;;;;;;5071521;28;20227;-87
2023/08/26 00:37:29;;;;;;;7.90;3.97;;;18.30;99.90;;;;;;5063116;28;20228;-88
2023/08/26 00:40:00;;;;;;;9.18;4.13;;;18.30;99.90;;;;;;5063043;28;20196;-87
2023/08/26 00:42:37;;;;;;;7.72;3.60;;;18.30;99.90;;;;;;5036680;28;20197;-88
2023/08/26 00:45:13;;;;;;;5.80;3.30;;;18.30;99.90;;;;;;5056230;28;20207;-85
2023/08/26 00:47:43;;;;;;;6.13;3.28;;;18.20;99.90;;;;;;5052629;28;20235;-83
2023/08/26 00:50:14;;;;;;;6.85;3.10;;;18.30;99.90;;;;;;5053580;28;20563;-83
2023/08/26 00:52:46;;;;;;;5.65;2.85;;;18.50;99.90;;;;;;5062055;28;20228;-89
2023/08/26 00:55:17;;;;;;;4.10;2.63;;;18.70;99.90;;;;;;5056708;28;20276;-86
2023/08/26 00:57:50;;;;;;;7.18;2.83;;;18.80;99.90;;;;;;5055207;28;20225;-86
2023/08/26 01:00:21;;;;;;;6.80;2.72;;;19.00;99.90;;;;;;5054044;28;20570;-86
2023/08/26 01:02:52;;;;;;;5.30;2.50;;;19.00;99.90;;;;;;5054286;28;20227;-85
2023/08/26 01:05:23;;;;;;;5.10;2.63;;;19.00;99.90;;;;;;5053331;28;20201;-85
2023/08/26 01:07:54;;;;;;;5.70;2.33;;;19.20;99.90;;;;;;5053231;28;20192;-86
2023/08/26 01:10:34;;;;;;;6.50;2.60;;;19.40;99.90;;;;;;5034278;28;20197;-86
2023/08/26 01:13:11;;;;;;;4.45;1.90;;;19.50;99.90;;;;;;5033274;28;20217;-85
2023/08/26 01:15:44;;;;;;;6.32;1.88;;;19.60;99.90;;;;;;5045541;28;20239;-85
2023/08/26 01:18:16;;;;;;;3.65;1.77;;;19.60;99.90;;;;;;5051924;28;20402;-79
2023/08/26 01:20:47;;;;;;;4.47;2.00;;;19.70;99.90;;;;;;5051360;28;20201;-84
2023/08/26 01:23:24;;;;;;;6.15;1.60;;;19.80;99.90;;;;;;5053496;28;20180;-85
2023/08/26 01:25:57;;;;;;;5.18;1.95;;;20.00;99.90;;;;;;5045710;28;20203;-84
2023/08/26 01:28:28;;;;;;;3.38;1.30;;;20.10;99.90;;;;;;5052888;28;20203;-85
2023/08/26 01:31:01;;;;;;;4.28;1.45;;;20.10;99.90;;;;;;5050284;28;20212;-85
2023/08/26 01:33:37;;;;;;;3.08;1.20;;;20.20;99.90;;;;;;5034579;28;20203;-85
2023/08/26 01:36:16;;;;;;;3.72;1.13;;;20.10;99.90;;;;;;5054594;28;20204;-85
2023/08/26 01:38:51;;;;;;;4.05;1.50;;;20.10;99.90;;;;;;5086320;28;20195;-84
2023/08/26 01:41:35;;;;;;;3.03;1.17;;;20.00;99.90;;;;;;5077392;28;20187;-85
2023/08/26 01:44:07;;;;;;;3.95;1.30;;;19.90;99.90;;;;;;5080846;28;20407;-85
2023/08/26 01:46:39;;;;;;;4.28;1.30;;;20.10;99.90;;;;;;5075061;28;20205;-84
2023/08/26 01:49:11;;;;;;;3.53;1.20;;;20.20;99.90;;;;;;5055713;28;20193;-83
2023/08/26 01:51:43;;;;;;;2.50;1.10;;;20.30;99.90;;;;;;5058522;28;20196;-85
2023/08/26 01:54:14;;;;;;;3.50;1.38;;;20.40;99.90;;;;;;5056513;28;20254;-84
2023/08/26 01:56:49;;;;;;;2.58;1.08;;;20.50;99.90;;;;;;5058289;28;20231;-84
2023/08/26 01:59:23;;;;;;;6.88;1.33;;;20.60;99.90;;;;;;5058563;28;20214;-85
2023/08/26 02:01:54;;;;;;;4.93;1.50;;;20.70;99.90;;;;;;5060453;28;20259;-85
2023/08/26 02:04:25;;;;;;;3.13;1.17;;;20.60;99.90;;;;;;5054446;28;20195;-85
2023/08/26 02:06:56;;;;;;;2.95;1.25;;;20.50;99.90;;;;;;5055513;28;20238;-84
2023/08/26 02:09:26;;;;;;;6.13;1.50;;;20.40;99.90;;;;;;5054822;28;20216;-88
2023/08/26 02:12:01;;;;;;;3.28;1.30;;;20.30;99.90;;;;;;5035814;28;20205;-88
2023/08/26 02:14:35;;;;;;;2.13;1.20;;;20.20;99.90;;;;;;5037678;28;20255;-85
2023/08/26 02:17:06;;;;;;;6.05;1.48;;;20.10;99.90;;;;;;5039069;28;20233;-88
2023/08/26 02:19:36;;;;;;;4.55;2.20;;;20.00;99.90;;;;;;5023152;28;20209;-86
2023/08/26 02:22:08;;;;;;;4.05;1.80;;;20.00;99.90;;;;;;5054794;28;20250;-85
2023/08/26 02:24:39;;;;;;;4.22;1.70;;;20.00;99.90;;;;;;5055985;28;20291;-83
2023/08/26 02:27:12;;;;;;;6.38;2.08;;;20.00;99.90;;;;;;5054890;28;20209;-84
2023/08/26 02:29:44;;;;;;;6.20;2.22;;;19.90;99.90;;;;;;5057343;28;20205;-84
2023/08/26 02:32:15;;;;;;;6.82;2.60;;;19.90;99.90;;;;;;5054168;28;20197;-86
2023/08/26 02:34:49;;;;;;;5.82;1.50;;;19.90;99.90;;;;;;5041847;28;20199;-84
2023/08/26 02:37:20;;;;;;;3.05;1.38;;;19.90;99.90;;;;;;5052371;28;20226;-86
2023/08/26 02:39:52;;;;;;;4.93;1.52;;;20.00;99.90;;;;;;5052028;28;20636;-85
2023/08/26 02:42:24;;;;;;;4.15;1.30;;;20.00;99.90;;;;;;5062637;28;20309;-86
2023/08/26 02:44:55;;;;;;;3.70;1.23;;;20.10;99.90;;;;;;5051972;28;20200;-86
2023/08/26 02:47:27;;;;;;;4.97;1.30;;;20.00;99.90;;;;;;5054504;28;20612;-87
2023/08/26 02:49:58;;;;;;;4.90;1.50;;;20.00;99.90;;;;;;5053875;28;20193;-87
2023/08/26 02:52:29;;;;;;;3.83;1.70;;;20.00;99.90;;;;;;5058565;28;20200;-86
2023/08/26 02:55:00;;;;;;;3.92;1.80;;;20.00;99.90;;;;;;5063300;28;20204;-86
2023/08/26 02:57:33;;;;;;;3.25;1.30;;;20.10;99.90;;;;;;5065045;28;20622;-87
2023/08/26 03:00:05;;;;;;;3.90;1.20;;;20.00;99.90;;;;;;5063233;28;20181;-87
2023/08/26 03:02:37;;;;;;;3.78;1.30;;;19.90;99.90;;;;;;5053507;28;20266;-86
2023/08/26 03:05:08;;;;;;;3.05;1.10;;;19.90;99.90;;;;;;5050520;28;20200;-86
2023/08/26 03:07:39;;;;;;;4.57;1.17;;;20.10;99.90;;;;;;5051913;28;20268;-86
2023/08/26 03:10:10;;;;;;;6.35;1.40;;;20.10;99.90;;;;;;5052421;28;20196;-87
2023/08/26 03:12:43;;;;;;;3.75;0.90;;;20.10;99.90;;;;;;5051813;28;20201;-87
2023/08/26 03:15:14;;;;;;;4.65;1.27;;;20.20;99.90;;;;;;5052282;28;20192;-88
2023/08/26 03:17:45;;;;;;;3.05;1.30;;;20.10;99.90;;;;;;5016348;28;20237;-87
2023/08/26 03:20:17;;;;;;;4.88;1.30;;;20.00;99.90;;;;;;5024625;28;20628;-88
2023/08/26 03:22:48;;;;;;;3.25;1.20;;;20.20;99.90;;;;;;5011636;28;20206;-88
2023/08/26 03:25:19;;;;;;;2.17;1.00;;;20.50;99.90;;;;;;5028599;28;20201;-87
2023/08/26 03:27:51;;;;;;;2.80;1.10;;;20.80;99.90;;;;;;5031675;28;20204;-88
2023/08/26 03:30:22;;;;;;;3.03;1.17;;;21.10;99.90;;;;;;5034757;28;20201;-87
2023/08/26 03:32:53;;;;;;;4.82;1.20;;;21.20;99.90;;;;;;5032440;28;20201;-86
2023/08/26 03:35:24;;;;;;;4.65;1.30;;;21.40;99.90;;;;;;5037425;28;20197;-86
2023/08/26 03:37:58;;;;;;;4.72;1.15;;;21.60;99.90;;;;;;5052501;28;20224;-87
2023/08/26 03:40:32;;;;;;;5.80;1.35;;;21.60;99.90;;;;;;5033385;28;20206;-87
2023/08/26 03:43:05;;;;;;;3.88;1.10;;;21.60;99.90;;;;;;5032924;28;20201;-87
2023/08/26 03:45:36;;;;;;;3.40;1.15;;;21.70;99.90;;;;;;5048843;28;20209;-87
2023/08/26 03:48:08;;;;;;;3.35;1.00;;;21.90;99.90;;;;;;5015380;28;20209;-84
2023/08/26 03:50:39;;;;;;;3.13;1.23;;;22.00;99.90;;;;;;5037692;28;20201;-88
2023/08/26 03:53:10;;;;;;;3.42;1.20;;;21.90;99.90;;;;;;5038182;28;20205;-87
2023/08/26 03:55:41;;;;;;;5.70;1.20;;;21.90;99.90;;;;;;5039290;28;20242;-88
2023/08/26 03:58:18;;;;;;;3.35;1.02;;;21.80;99.90;;;;;;5024459;28;20564;-88
2023/08/26 04:00:50;;;;;;;5.32;0.90;;;21.70;99.90;;;;;;5033973;28;20197;-88
2023/08/26 04:03:21;;;;;;;4.38;0.98;;;21.70;99.90;;;;;;5035995;28;20204;-87
2023/08/26 04:05:58;;;;;;;4.63;0.80;;;21.60;99.90;;;;;;5035858;28;20201;-87
2023/08/26 04:08:29;;;;;;;2.83;0.80;;;21.60;99.90;;;;;;5029105;28;20197;-87
2023/08/26 04:11:02;;;;;;;4.72;1.10;;;21.50;99.90;;;;;;5036509;28;20189;-88
2023/08/26 04:13:36;;;;;;;1.88;1.10;;;21.50;99.90;;;;;;5036817;28;20193;-87
2023/08/26 04:16:07;;;;;;;3.30;1.20;;;21.40;99.90;;;;;;5041149;28;20722;-88
2023/08/26 04:18:39;;;;;;;4.88;1.45;;;21.30;99.90;;;;;;5054025;28;20220;-86
2023/08/26 04:21:10;;;;;;;3.60;1.10;;;21.30;99.90;;;;;;5056790;28;20203;-88
2023/08/26 04:23:41;;;;;;;3.03;0.93;;;21.20;99.90;;;;;;5055816;28;20208;-87
2023/08/26 04:26:12;;;;;;;6.15;1.40;;;21.30;99.90;;;;;;5054129;28;20189;-88
2023/08/26 04:28:44;;;;;;;2.08;0.82;;;21.20;99.90;;;;;;5036657;28;20197;-87
2023/08/26 04:31:16;;;;;;;2.28;0.90;;;21.10;99.90;;;;;;5056557;28;20203;-86
2023/08/26 04:33:50;;;;;;;2.25;1.10;;;21.00;99.90;;;;;;5036891;28;20196;-87
2023/08/26 04:36:20;;;;;;;2.42;0.95;;;20.80;99.90;;;;;;5056274;28;20211;-87
2023/08/26 04:38:51;;;;;;;4.18;1.50;;;20.80;99.90;;;;;;5056447;28;20212;-87
2023/08/26 04:41:22;;;;;;;2.90;0.90;;;20.80;99.90;;;;;;5057459;28;20204;-88
2023/08/26 04:43:59;;;;;;;3.10;1.17;;;20.80;99.90;;;;;;5067894;28;20208;-88
2023/08/26 04:46:31;;;;;;;5.97;1.20;;;20.70;99.90;;;;;;5062364;28;20196;-87
2023/08/26 04:49:02;;;;;;;2.72;0.80;;;20.80;99.90;;;;;;5054844;28;20201;-86
2023/08/26 04:51:32;;;;;;;2.70;1.00;;;20.80;99.90;;;;;;5057824;28;20707;-87
2023/08/26 04:54:04;;;;;;;2.70;0.90;;;20.80;99.90;;;;;;5054832;28;20196;-88
2023/08/26 04:56:34;;;;;;;3.58;1.27;;;20.80;99.90;;;;;;5054222;28;20232;-86
2023/08/26 04:59:07;;;;;;;2.10;1.13;;;20.80;99.90;;;;;;5054542;28;20217;-86
2023/08/26 05:01:38;;;;;;;5.47;1.13;;;21.00;99.90;;;;;;5055590;28;20196;-88
2023/08/26 05:04:09;;;;;;;3.92;1.40;;;20.90;99.90;;;;;;5056160;28;20217;-88
2023/08/26 05:06:41;;;;;;;2.70;1.27;;;20.90;99.90;;;;;;5040870;28;20197;-87
2023/08/26 05:09:12;;;;;;;2.92;1.40;;;20.80;99.90;;;;;;5055247;28;20725;-87
2023/08/26 05:11:43;;;;;;;3.00;1.10;;;20.70;99.90;;;;;;5057063;28;20196;-88
2023/08/26 05:14:20;;;;;;;3.75;1.10;;;20.60;99.90;;;;;;5056029;28;20287;-86
2023/08/26 05:16:52;;;;;;;4.32;1.13;;;20.50;99.90;;;;;;5040982;28;20221;-87
2023/08/26 05:19:24;;;;;;;4.57;1.10;;;20.50;99.90;;;;;;5050100;28;20296;-87
2023/08/26 05:21:54;;;;;;;3.22;0.95;;;20.50;99.90;;;;;;5068242;28;20200;-87
2023/08/26 05:24:25;;;;;;;2.50;1.00;;;20.50;99.90;;;;;;5073390;28;20648;-87
2023/08/26 05:26:57;;;;;;;4.85;0.95;;;20.40;99.90;;;;;;5040339;28;20189;-87
2023/08/26 05:29:31;;;;;;;4.72;1.10;;;20.40;99.90;;;;;;5054749;28;20204;-87
2023/08/26 05:32:02;;;;;;;2.28;1.05;;;20.30;99.90;;;;;;5055239;28;20612;-87
2023/08/26 05:34:33;;;;;;;4.05;1.65;;;20.20;99.90;;;;;;5054826;28;20197;-88
2023/08/26 05:37:05;;;;;;;7.57;3.00;;;20.10;99.90;;;;;;5056028;28;20200;-86
2023/08/26 05:39:35;;;;;;;4.72;2.33;;;20.00;99.90;;;;;;5055879;28;20311;-87
2023/08/26 05:42:06;;;;;;;3.85;1.33;;;20.00;99.90;;;;;;5055254;28;20280;-87
2023/08/26 05:44:44;;;;;;;2.33;0.88;;;20.00;99.90;;;;;;5065219;28;20207;-86
2023/08/26 05:47:17;;;;;;;2.15;1.10;;;20.00;99.90;;;;;;5070175;28;20239;-88
2023/08/26 05:49:49;;;;;;;4.40;0.80;;;20.10;99.90;;;;;;5071586;28;20221;-86
2023/08/26 05:52:21;;;;;;;2.95;1.00;;;20.20;99.90;;;;;;5065395;28;20211;-88
2023/08/26 05:55:10;;;;;;;3.28;1.17;;;20.30;99.90;;;;;;5058958;28;20220;-86
2023/08/26 05:57:43;;;;;;;4.60;2.17;;;20.30;99.90;;;;;;5037107;28;20213;-88
2023/08/26 06:00:17;;;;;;;4.00;1.60;;;20.40;99.90;;;;;;5036473;28;20213;-88
2023/08/26 06:03:03;;;;;;;2.67;0.90;;;20.50;99.90;;;;;;5047849;28;20199;-88
2023/08/26 06:05:35;;;;;;;7.68;2.25;;;20.50;99.90;;;;;;5060254;28;20224;-87
2023/08/26 06:08:06;;;;;;;6.45;2.60;;;20.60;99.90;;;;;;5048234;28;20205;-87
2023/08/26 06:10:48;;;;;;;3.40;1.33;;;20.60;99.90;;;;;;5047350;28;20253;-88
2023/08/26 06:13:19;;;;;;;3.10;1.17;;;20.60;99.90;;;;;;5061276;28;20304;-87
2023/08/26 06:16:18;;;;;;;2.42;1.00;;;20.60;99.90;;;;;;5055334;28;20233;-88
2023/08/26 06:18:50;;;;;;;2.47;1.17;;;20.60;99.90;;;;;;5055470;28;20320;-87
2023/08/26 06:21:20;;;;;;;2.17;1.00;;;20.70;99.90;;;;;;5051554;28;20193;-86
2023/08/26 06:23:53;;;;;;;3.70;1.00;;;20.80;99.90;;;;;;5052272;28;20197;-87
2023/08/26 06:26:23;;;;;;;3.60;0.90;;;20.80;99.90;;;;;;5044687;28;20544;-86
2023/08/26 06:28:55;;;;;;;5.30;1.27;;;20.90;99.90;;;;;;5034565;28;20197;-87
2023/08/26 06:31:28;;;;;;;3.35;1.20;;;21.00;99.90;;;;;;5052679;28;20255;-87
2023/08/26 06:33:59;;;;;;;2.80;1.00;;;21.00;99.90;;;;;;5051014;28;20188;-87
2023/08/26 06:36:30;;;;;;;4.93;1.80;;;21.00;99.90;;;;;;5053359;28;20200;-87
2023/08/26 06:39:05;;;;;;;2.25;1.13;;;21.10;99.90;;;;;;5062727;28;20210;-91
2023/08/26 06:41:37;;;;;;;3.03;1.30;;;21.00;99.90;;;;;;5073663;28;20222;-92
2023/08/26 06:44:12;;;;;;;3.20;1.10;;;20.90;99.90;;;;;;5073034;28;20263;-88
2023/08/26 06:46:50;;;;;;;3.97;1.05;;;20.80;99.90;;;;;;5072393;28;20196;-88
2023/08/26 06:49:25;;;;;;;2.85;1.50;;;20.80;99.90;;;;;;5058633;28;20202;-93
2023/08/26 06:52:05;;;;;;;3.42;1.00;;;20.70;99.90;;;;;;5059223;28;20199;-91
2023/08/26 06:54:50;;;;;;;3.15;0.85;;;20.50;99.90;;;;;;5066120;28;20221;-90
2023/08/26 06:57:22;;;;;;;3.03;1.20;;;20.30;99.90;;;;;;5067814;28;20190;-90
2023/08/26 06:59:58;;;;;;;3.00;1.60;;;20.10;99.90;;;;;;5039273;28;20233;-92
2023/08/26 07:02:32;;;;;;;4.38;1.60;;;20.00;99.90;;;;;;5035492;28;20576;-90
2023/08/26 07:05:04;;;;;;;4.60;1.48;;;19.90;99.90;;;;;;5032722;28;20256;-89
2023/08/26 07:07:36;;;;;;;4.90;1.20;;;19.80;99.90;;;;;;5034488;28;20232;-89
2023/08/26 07:10:12;;;;;;;2.58;1.30;;;19.80;99.90;;;;;;5046532;28;20239;-90
2023/08/26 07:12:45;;;;;;;6.75;1.15;;;19.70;99.90;;;;;;5054170;28;20200;-91
2023/08/26 07:15:17;;;;;;;3.58;1.20;;;19.60;99.90;;;;;;5055975;28;20254;-89
2023/08/26 07:17:54;;;;;;;3.30;1.25;;;19.50;99.90;;;;;;5050899;28;20231;-89
2023/08/26 07:20:25;;;;;;;2.53;1.13;;;19.40;99.90;;;;;;5028822;28;20200;-89
2023/08/26 07:22:59;;;;;;;4.22;1.40;;;19.30;99.90;;;;;;5039484;28;20185;-87
2023/08/26 07:25:30;;;;;;;1.95;1.00;;;19.20;99.90;;;;;;5051466;28;20215;-89
2023/08/26 07:28:02;;;;;;;3.10;1.40;;;19.10;99.90;;;;;;5057298;28;20200;-89
2023/08/26 07:30:33;;;;;;;3.58;1.20;;;19.10;99.90;;;;;;5035244;28;20253;-85
2023/08/26 07:33:07;;;;;;;2.78;1.30;;;19.00;99.90;;;;;;5043424;28;20197;-87
2023/08/26 07:35:38;;;;;;;2.05;1.13;;;18.90;99.90;;;;;;5048527;28;20226;-88
2023/08/26 07:38:10;;;;;;;3.83;1.35;;;18.90;99.90;;;;;;5060631;28;20212;-89
2023/08/26 07:40:44;;;;;;;2.30;1.05;;;18.80;99.90;;;;;;5056168;28;20185;-90
2023/08/26 07:46:23;;;;;;;4.03;1.35;;;18.80;99.90;;;;;;5067788;28;20208;-90
2023/08/26 07:49:00;;;;;;;3.28;1.55;;;18.60;99.90;;;;;;5072310;28;20268;-89
2023/08/26 07:51:31;;;;;;;3.10;1.40;;;18.60;99.90;;;;;;5034690;28;20196;-92
2023/08/26 07:54:05;;;;;;;4.47;1.40;;;18.60;99.90;;;;;;5056594;28;20204;-88
2023/08/26 07:56:37;;;;;;;3.92;1.70;;;18.50;99.90;;;;;;5061139;28;20201;-89
2023/08/26 07:59:08;;;;;;;3.53;1.63;;;18.50;99.90;;;;;;5047809;28;20217;-87
2023/08/26 08:01:41;;;;;;;2.28;1.67;;;18.50;99.90;;;;;;5064224;28;20225;-89
2023/08/26 08:04:16;;;;;;;5.90;1.98;;;18.40;99.90;;;;;;5036035;28;20203;-89
2023/08/26 08:06:47;;;;;;;4.60;2.00;;;18.40;99.90;;;;;;5041874;28;20202;-90
2023/08/26 08:09:18;;;;;;;3.97;2.13;;;18.40;99.90;;;;;;5060952;28;20197;-90
2023/08/26 08:11:51;;;;;;;3.25;2.10;;;18.40;99.90;;;;;;5041517;28;20197;-90
2023/08/26 08:14:29;;;;;;;4.13;2.17;;;18.30;99.90;;;;;;5040251;28;20203;-90
2023/08/26 08:17:15;;;;;;;4.95;2.53;;;18.30;99.90;;;;;;5063183;28;20232;-89
2023/08/26 08:19:51;;;;;;;4.75;2.70;;;18.20;99.90;;;;;;5059942;28;20295;-89
2023/08/26 08:22:41;;;;;;;3.63;2.55;;;18.20;99.90;;;;;;5053603;28;20192;-90
2023/08/26 08:25:15;;;;;;;5.68;2.70;;;18.20;99.90;;;;;;5079491;28;20288;-91
2023/08/26 08:27:56;;;;;;;4.15;2.60;;;18.10;99.90;;;;;;5076444;28;20647;-92
2023/08/26 08:30:30;;;;;;;3.70;2.50;;;18.10;99.90;;;;;;5022882;23;20240;-90
2023/08/26 08:33:03;;;;;;;4.72;2.60;;;18.10;99.90;;;;;;5019221;28;20226;-89
2023/08/26 08:35:40;;;;;;;6.03;2.90;;;18.20;99.90;;;;;;5022545;28;20232;-89
2023/08/26 08:38:12;;;;;;;4.68;3.33;;;18.10;99.90;;;;;;5021629;28;20205;-89
2023/08/26 08:40:46;;;;;;;6.47;4.05;;;18.10;99.90;;;;;;5001086;28;20205;-88
2023/08/26 08:43:22;;;;;;;7.78;4.82;;;18.10;99.90;;;;;;5001525;28;20198;-88
2023/08/26 08:45:59;;;;;;;5.40;3.65;;;18.10;99.90;;;;;;5006109;28;20221;-88
2023/08/26 08:48:32;;;;;;;6.65;3.80;;;18.10;99.90;;;;;;5010213;28;20186;-89
2023/08/26 08:51:05;;;;;;;5.53;4.03;;;18.10;99.90;;;;;;5015196;28;20236;-88
2023/08/26 08:53:41;;;;;;;7.10;5.10;;;18.00;99.90;;;;;;5010163;28;20216;-90
2023/08/26 08:56:13;;;;;;;9.30;7.57;;;18.00;99.90;;;;;;5021924;28;20202;-89
2023/08/26 08:58:47;;;;;;;11.45;9.00;;;18.00;99.90;;;;;;5020500;28;20226;-88
2023/08/26 09:01:23;;;;;;;13.18;7.13;;;18.00;99.90;;;;;;5022888;28;20207;-90
2023/08/26 09:03:55;;;;;;;7.20;5.70;;;17.90;99.90;;;;;;5015113;28;20182;-91
2023/08/26 09:06:38;;;;;;;8.07;4.57;;;17.90;99.90;;;;;;4996902;28;20234;-89
2023/08/26 09:09:10;;;;;;;6.25;3.92;;;17.90;99.90;;;;;;5006050;28;20599;-89
2023/08/26 09:11:42;;;;;;;4.32;3.50;;;17.90;99.90;;;;;;5020068;28;20206;-88
2023/08/26 09:14:13;;;;;;;6.15;3.70;;;17.90;99.90;;;;;;5021484;28;20218;-88
2023/08/26 09:16:45;;;;;;;5.03;3.30;;;17.90;99.90;;;;;;5017862;28;20205;-88
2023/08/26 09:19:17;;;;;;;4.75;3.00;;;17.80;99.90;;;;;;5021724;28;20232;-87
2023/08/26 09:21:53;;;;;;;5.68;2.65;;;17.80;99.90;;;;;;5009829;28;20334;-88
2023/08/26 09:24:25;;;;;;;5.15;2.70;;;17.80;99.90;;;;;;5026028;28;20630;-89
2023/08/26 09:27:02;;;;;;;4.07;2.60;;;17.80;99.90;;;;;;5017121;28;20220;-88
2023/08/26 09:29:36;;;;;;;6.07;2.60;;;17.70;99.90;;;;;;5005662;28;20280;-87
2023/08/26 09:32:08;;;;;;;4.07;2.08;;;17.70;99.90;;;;;;4999497;28;20187;-89
2023/08/26 09:34:43;;;;;;;4.72;2.65;;;17.70;99.90;;;;;;5016389;28;20216;-89
2023/08/26 09:37:18;;;;;;;4.63;2.78;;;17.70;99.90;;;;;;5017235;28;20228;-87
2023/08/26 09:39:52;;;;;;;4.82;2.30;;;17.70;99.90;;;;;;4997618;28;20214;-88
2023/08/26 09:42:23;;;;;;;4.57;2.75;;;17.70;99.90;;;;;;4972581;28;20218;-88
2023/08/26 09:44:59;;;;;;;6.10;2.67;;;17.70;99.90;;;;;;4996820;28;20202;-88
2023/08/26 09:47:38;;;;;;;6.65;2.70;;;17.70;99.90;;;;;;5010719;28;20280;-88
2023/08/26 09:50:10;;;;;;;4.90;2.50;;;17.70;99.90;;;;;;5014789;28;20194;-88
2023/08/26 09:52:52;;;;;;;6.10;2.53;;;17.60;99.90;;;;;;5001000;28;20616;-87
2023/08/26 09:55:24;;;;;;;4.68;2.53;;;17.60;99.90;;;;;;4998078;28;20202;-87
2023/08/26 09:58:00;;;;;;;4.93;2.40;;;17.60;99.90;;;;;;5016092;28;20240;-88
2023/08/26 10:00:31;;;;;;;8.10;3.30;;;17.60;99.90;;;;;;5023077;28;20226;-88
2023/08/26 10:03:06;;;;;;;3.60;2.30;;;17.60;99.90;;;;;;5010367;28;20198;-89
2023/08/26 10:05:40;;;;;;;4.35;2.60;;;17.60;99.90;;;;;;5029255;28;20208;-88
2023/08/26 10:08:15;;;;;;;4.63;2.60;;;17.60;99.90;;;;;;5024155;28;20218;-87
2023/08/26 10:13:59;;;;;;;5.35;2.55;;;17.50;99.90;;;;;;5003795;28;20669;-89
2023/08/26 10:16:40;;;;;;;5.78;3.05;;;17.50;99.90;;;;;;5005239;28;20183;-89
2023/08/26 10:19:12;;;;;;;6.53;2.47;;;17.50;99.90;;;;;;5014068;28;20226;-90
2023/08/26 10:21:46;;;;;;;5.10;2.40;;;17.50;99.90;;;;;;5070955;23;20230;-88
2023/08/26 10:24:29;;;;;;;5.45;2.80;;;17.50;99.90;;;;;;5035649;28;20205;-88
2023/08/26 10:27:00;;;;;;;5.70;3.05;;;17.50;99.90;;;;;;5048092;28;20200;-88
2023/08/26 10:29:33;;;;;;;8.13;2.65;;;17.40;99.90;;;;;;5034384;28;20285;-86
2023/08/26 10:32:36;;;;;;;5.45;2.67;;;17.40;99.90;;;;;;5046423;28;20201;-88
2023/08/26 10:38:39;;;;;;;6.55;2.50;;;17.40;99.90;;;;;;5039308;28;20197;-89
2023/08/26 10:41:17;;;;;;;5.25;2.83;;;17.30;99.90;;;;;;5040063;28;20244;-87
2023/08/26 10:44:04;;;;;;;4.00;2.38;;;17.30;99.90;;;;;;5034994;28;20204;-87
2023/08/26 10:47:02;;;;;;;4.18;2.50;;;17.30;99.90;;;;;;5039877;28;20201;-87
2023/08/26 10:49:34;;;;;;;4.78;2.65;;;17.30;99.90;;;;;;5036611;28;20213;-89
2023/08/26 10:52:21;;;;;;;5.43;2.60;;;17.30;99.90;;;;;;5033344;28;20212;-87
2023/08/26 10:54:59;;;;;;;3.17;2.35;;;17.30;99.90;;;;;;5013983;28;20204;-89
2023/08/26 10:58:01;;;;;;;5.88;3.00;;;17.20;99.90;;;;;;5036691;28;20199;-87
2023/08/26 11:00:37;;;;;;;5.47;2.83;;;17.20;99.90;;;;;;5033322;28;20245;-86
2023/08/26 11:03:16;;;;;;;4.93;3.13;;;17.20;99.90;;;;;;5043041;28;20216;-87
2023/08/26 11:06:05;;;;;;;7.97;3.30;;;17.20;99.90;;;;;;5018970;28;20201;-87
2023/08/26 11:08:49;;;;;;;8.23;3.15;;;17.20;99.90;;;;;;5039180;28;20575;-88
2023/08/26 11:11:47;;;;;;;7.10;3.17;;;17.20;99.90;;;;;;5048604;28;20188;-85
2023/08/26 11:14:24;;;;;;;6.78;3.80;;;17.20;99.90;;;;;;5035219;28;20228;-87
2023/08/26 11:17:11;;;;;;;6.20;3.63;;;17.20;99.90;;;;;;5033024;28;20249;-86
2023/08/26 11:20:05;;;;;;;6.80;4.10;;;17.20;99.90;;;;;;5027409;28;20230;-89
2023/08/26 11:22:42;;;;;;;7.57;3.67;;;17.20;99.90;;;;;;5041444;28;20268;-86
2023/08/26 11:25:27;;;;;;;6.32;4.07;;;17.20;99.90;;;;;;5048477;28;20204;-86
2023/08/26 11:28:08;;;;;;;6.60;3.60;;;17.10;99.90;;;;;;5044969;28;20215;-84
2023/08/26 11:30:48;;;;;;;9.35;4.70;;;17.10;99.90;;;;;;5038832;28;20714;-84
2023/08/26 11:33:26;;;;;;;9.77;5.10;;;17.10;99.90;;;;;;5035570;28;20288;-84
2023/08/26 11:36:06;;;;;;;9.05;4.97;;;17.00;99.90;;;;;;5034692;28;20232;-85
2023/08/26 11:38:40;;;;;;;9.82;5.50;;;16.90;99.90;;;;;;5036655;28;20751;-85
2023/08/26 11:41:20;;;;;;;7.35;5.40;;;16.90;99.90;;;;;;5034659;28;20653;-86
2023/08/26 11:43:53;;;;;;;8.75;5.15;;;16.90;99.90;;;;;;5034563;28;20200;-82
2023/08/26 11:46:31;;;;;;;8.85;5.47;;;16.90;99.90;;;;;;5040129;28;20230;-87
2023/08/26 11:49:09;;;;;;;9.88;5.93;;;16.90;99.90;;;;;;5039930;28;20201;-85
2023/08/26 11:51:52;;;;;;;9.73;5.95;;;16.90;99.90;;;;;;5029101;28;20334;-89
2023/08/26 11:54:57;;;;;;;9.38;6.10;;;16.80;99.90;;;;;;5038193;28;20223;-87
2023/08/26 11:57:31;;;;;;;11.38;5.93;;;16.80;99.90;;;;;;5045096;28;20251;-87
2023/08/26 12:00:20;;;;;;;6.75;5.30;;;16.80;99.90;;;;;;5037882;28;20224;-87
2023/08/26 12:02:58;;;;;;;6.10;4.90;;;16.70;99.90;;;;;;5023010;28;20225;-88
2023/08/26 12:05:48;;;;;;;9.10;5.32;;;16.60;99.90;;;;;;5016400;28;20192;-87
2023/08/26 12:08:25;;;;;;;7.57;5.28;;;16.60;99.90;;;;;;5025606;28;20203;-89
2023/08/26 12:11:08;;;;;;;9.85;5.93;;;16.60;99.90;;;;;;5022095;28;20289;-89
2023/08/26 12:13:50;;;;;;;9.73;5.78;;;16.50;99.90;;;;;;5062281;28;20176;-87
2023/08/26 12:16:25;;;;;;;10.45;5.70;;;16.50;99.90;;;;;;5077544;28;20265;-87
2023/08/26 12:19:03;;;;;;;8.65;5.85;;;16.50;99.90;;;;;;5063006;28;20193;-86
2023/08/26 12:21:42;;;;;;;8.18;5.82;;;16.50;99.90;;;;;;5069610;28;20238;-87
2023/08/26 12:27:11;;;;;;;10.23;6.05;;;16.40;99.90;;;;;;5057804;28;20196;-88
2023/08/26 12:30:06;;;;;;;8.27;5.93;;;16.40;99.90;;;;;;5039546;28;20190;-89
2023/08/26 12:38:49;;;;;;;7.55;5.45;;;16.30;99.90;;;;;;5049909;28;20217;-90
2023/08/26 12:41:50;;;;;;;8.65;5.60;;;16.20;99.90;;;;;;5033392;28;20260;-92
2023/08/26 12:47:13;;;;;;;11.23;7.10;;;16.20;99.90;;;;;;5046545;28;20256;-89
2023/08/26 12:49:45;;;;;;;9.85;6.57;;;16.30;99.90;;;;;;5036985;28;20202;-89
2023/08/26 12:52:17;;;;;;;9.07;6.70;;;16.20;99.90;;;;;;5027627;28;20204;-89
2023/08/26 12:54:47;;;;;;;10.85;7.10;;;16.20;99.90;;;;;;5044887;28;20209;-89
2023/08/26 12:57:19;;;;;;;9.48;6.68;;;16.20;99.90;;;;;;5025527;28;20205;-90
2023/08/26 12:59:53;;;;;;;9.93;6.35;;;16.10;99.90;;;;;;5025881;28;20281;-90
2023/08/26 13:02:25;;;;;;;9.82;6.32;;;16.10;99.90;;;;;;5031167;28;20208;-89
2023/08/26 13:04:56;;;;;;;7.43;6.05;;;16.10;99.90;;;;;;5043516;28;20205;-87
2023/08/26 13:07:29;;;;;;;9.38;6.32;;;16.10;99.90;;;;;;5025372;28;20650;-86
2023/08/26 13:10:02;;;;;;;7.88;5.82;;;16.10;99.90;;;;;;5029717;28;20217;-88
2023/08/26 13:12:33;;;;;;;10.15;6.53;;;16.10;99.90;;;;;;5004251;28;20202;-87
2023/08/26 13:15:09;;;;;;;8.68;6.70;;;16.00;99.90;;;;;;5043662;28;20185;-87
2023/08/26 13:17:40;;;;;;;9.98;7.22;;;16.00;99.90;;;;;;5053091;28;20253;-86
2023/08/26 13:20:14;;;;;;;9.57;6.47;;;16.00;99.90;;;;;;5048959;28;20229;-87
2023/08/26 13:22:44;;;;;;;8.40;6.30;;;15.90;99.90;;;;;;5037656;28;20235;-88
2023/08/26 13:25:17;;;;;;;11.13;7.07;;;15.90;99.90;;;;;;5038105;28;20208;-88
2023/08/26 13:27:50;;;;;;;13.52;7.45;;;15.90;99.90;;;;;;5037374;28;20206;-87
2023/08/26 13:30:23;;;;;;;9.85;6.47;;;15.90;99.90;;;;;;5036889;28;20583;-87
2023/08/26 13:32:55;;;;;;;12.30;7.40;;;15.90;99.90;;;;;;5037643;28;20604;-86
2023/08/26 13:35:31;;;;;;;11.65;7.32;;;15.80;99.90;;;;;;5036813;28;20285;-87
2023/08/26 13:38:02;;;;;;;11.00;7.18;;;15.80;99.90;;;;;;5036236;28;20194;-87
2023/08/26 13:40:34;;;;;;;10.93;6.68;;;15.80;99.90;;;;;;5034743;28;20576;-86
2023/08/26 13:43:04;;;;;;;8.45;6.70;;;15.70;99.90;;;;;;5035855;28;20190;-89
2023/08/26 13:45:49;;;;;;;10.82;6.50;;;15.70;99.90;;;;;;5050503;28;20195;-90